createdAt,value
2018-09-01T00:01:50.043Z,451.18
2018-09-01T00:04:20.356Z,422.40
2018-09-01T00:06:50.583Z,404.05
2018-09-01T00:09:21.006Z,390.32
2018-09-01T00:11:51.312Z,392.57
2018-09-01T00:14:21.542Z,391.25
2018-09-01T00:16:51.819Z,438.25
2018-09-01T00:19:22.132Z,430.93
2018-09-01T00:21:52.484Z,420.30
2018-09-01T00:24:22.709Z,434.03
2018-09-01T00:26:53.269Z,407.02
2018-09-01T00:29:24.139Z,475.95
2018-09-01T00:31:54.370Z,470.32
2018-09-01T00:34:24.548Z,410.23
2018-09-01T00:36:54.709Z,438.10
2018-09-01T00:39:24.908Z,473.25
2018-09-01T00:41:55.087Z,419.25
2018-09-01T00:44:25.607Z,412.62
2018-09-01T00:46:55.960Z,474.02
2018-09-01T00:49:26.729Z,415.23
2018-09-01T00:51:56.981Z,382.00
2018-09-01T00:54:27.462Z,434.57
2018-09-01T00:56:57.704Z,435.23
2018-09-01T00:59:28.274Z,378.77
2018-09-01T01:01:58.516Z,460.35
2018-09-01T01:04:28.771Z,493.60
2018-09-01T01:07:00.672Z,408.07
2018-09-01T01:09:30.858Z,424.35
2018-09-01T01:12:01.819Z,394.93
2018-09-01T01:14:32.165Z,372.33
2018-09-01T01:17:02.623Z,383.73
2018-09-01T01:19:33.032Z,391.98
2018-09-01T01:22:04.517Z,395.25
2018-09-01T01:24:34.906Z,424.58
2018-09-01T01:27:05.273Z,408.65
2018-09-01T01:29:35.640Z,366.70
2018-09-01T01:32:06.658Z,369.25
2018-09-01T01:34:37.052Z,380.18
2018-09-01T01:37:07.681Z,336.23
2018-09-01T01:39:37.964Z,405.87
2018-09-01T01:42:08.281Z,364.57
2018-09-01T01:44:38.586Z,430.15
2018-09-01T01:47:08.770Z,422.87
2018-09-01T01:49:39.380Z,404.92
2018-09-01T01:52:09.699Z,378.18
2018-09-01T01:54:39.984Z,378.37
2018-09-01T01:57:10.356Z,366.25
2018-09-01T01:59:40.729Z,391.55
2018-09-01T02:02:11.094Z,326.05
2018-09-01T02:04:41.424Z,360.08
2018-09-01T02:07:11.671Z,327.87
2018-09-01T02:09:42.644Z,377.10
2018-09-01T02:12:12.803Z,394.25
2018-09-01T02:14:43.043Z,357.55
2018-09-01T02:17:13.776Z,384.25
2018-09-01T02:19:44.051Z,356.55
2018-09-01T02:22:14.397Z,337.08
2018-09-01T02:24:44.832Z,395.85
2018-09-01T02:27:15.110Z,356.70
2018-09-01T02:29:45.408Z,350.57
2018-09-01T02:32:15.512Z,369.10
2018-09-01T02:34:46.457Z,355.87
2018-09-01T02:37:16.909Z,364.20
2018-09-01T02:39:47.333Z,331.00
2018-09-01T02:42:17.537Z,360.27
2018-09-01T02:44:47.856Z,334.80
2018-09-01T02:47:18.484Z,358.43
2018-09-01T02:49:48.793Z,377.75
2018-09-01T02:52:19.484Z,326.90
2018-09-01T02:54:49.728Z,348.20
2018-09-01T02:57:20.030Z,329.25
2018-09-01T02:59:50.447Z,340.02
2018-09-01T03:02:56.468Z,343.88
2018-09-01T03:05:27.125Z,349.20
2018-09-01T03:07:58.013Z,339.88
2018-09-01T03:10:28.373Z,370.10
2018-09-01T03:12:58.732Z,371.15
2018-09-01T03:15:28.884Z,329.52
2018-09-01T03:17:59.104Z,375.57
2018-09-01T03:20:30.862Z,347.48
2018-09-01T03:23:02.674Z,320.67
2018-09-01T03:25:35.569Z,346.15
2018-09-01T03:28:06.327Z,330.20
2018-09-01T03:30:36.758Z,355.65
2018-09-01T03:33:07.752Z,324.80
2018-09-01T03:35:40.345Z,379.90
2018-09-01T03:38:12.897Z,343.82
2018-09-01T03:40:43.104Z,341.68
2018-09-01T03:43:13.886Z,340.80
2018-09-01T03:45:44.151Z,324.32
2018-09-01T03:48:14.745Z,313.12
2018-09-01T03:50:44.976Z,354.70
2018-09-01T03:53:15.792Z,370.60
2018-09-01T03:55:46.093Z,350.10
2018-09-01T03:58:16.449Z,325.68
2018-09-01T04:00:47.038Z,357.25
2018-09-01T04:03:17.828Z,367.70
2018-09-01T04:05:48.428Z,358.93
2018-09-01T04:08:18.632Z,352.50
2018-09-01T04:10:48.876Z,325.93
2018-09-01T04:13:19.147Z,322.88
2018-09-01T04:15:49.687Z,374.10
2018-09-01T04:18:20.292Z,347.73
2018-09-01T04:20:50.476Z,310.35
2018-09-01T04:23:20.825Z,296.80
2018-09-01T04:25:51.058Z,325.98
2018-09-01T04:28:21.251Z,296.45
2018-09-01T04:30:51.772Z,308.55
2018-09-01T04:33:21.923Z,315.87
2018-09-01T04:35:52.366Z,332.52
2018-09-01T04:38:22.551Z,318.37
2018-09-01T04:40:53.033Z,293.52
2018-09-01T04:43:23.442Z,370.35
2018-09-01T04:45:53.787Z,318.70
2018-09-01T04:48:24.109Z,362.17
2018-09-01T04:50:54.395Z,330.55
2018-09-01T04:53:24.721Z,306.45
2018-09-01T04:55:55.132Z,305.62
2018-09-01T04:58:25.543Z,291.05
2018-09-01T05:00:56.054Z,306.00
2018-09-01T05:03:26.646Z,298.20
2018-09-01T05:05:56.887Z,310.77
2018-09-01T05:08:27.237Z,309.30
2018-09-01T05:10:57.434Z,316.00
2018-09-01T05:13:27.791Z,289.80
2018-09-01T05:15:58.315Z,308.32
2018-09-01T05:18:28.636Z,311.25
2018-09-01T05:20:58.940Z,313.82
2018-09-01T05:23:29.369Z,311.87
2018-09-01T05:26:05.268Z,326.10
2018-09-01T05:28:37.696Z,343.57
2018-09-01T05:31:09.594Z,322.55
2018-09-01T05:33:40.025Z,280.35
2018-09-01T05:36:10.627Z,327.90
2018-09-01T05:38:48.636Z,315.82
2018-09-01T05:41:19.016Z,278.73
2018-09-01T05:43:49.354Z,304.65
2018-09-01T05:46:19.529Z,344.75
2018-09-01T05:48:49.743Z,308.80
2018-09-01T05:51:36.918Z,332.23
2018-09-01T05:54:13.040Z,316.38
2018-09-01T05:56:43.316Z,326.73
2018-09-01T05:59:13.848Z,322.42
2018-09-01T06:01:44.208Z,343.37
2018-09-01T06:04:14.426Z,331.10
2018-09-01T06:06:45.054Z,355.37
2018-09-01T06:09:15.384Z,366.33
2018-09-01T06:11:45.904Z,367.10
2018-09-01T06:14:16.361Z,365.82
2018-09-01T06:16:47.683Z,350.10
2018-09-01T06:19:22.832Z,344.90
2018-09-01T06:21:53.757Z,313.98
2018-09-01T06:24:24.462Z,335.30
2018-09-01T06:26:55.197Z,317.20
2018-09-01T06:29:26.359Z,353.70
2018-09-01T06:31:59.649Z,329.73
2018-09-01T06:34:29.938Z,345.27
2018-09-01T06:37:00.178Z,312.80
2018-09-01T06:39:30.557Z,335.75
2018-09-01T06:42:01.597Z,314.20
2018-09-01T06:44:32.168Z,340.48
2018-09-01T06:47:03.640Z,348.93
2018-09-01T06:49:38.902Z,296.00
2018-09-01T06:52:10.013Z,346.80
2018-09-01T06:54:40.411Z,384.45
2018-09-01T06:57:10.722Z,368.30
2018-09-01T06:59:41.266Z,365.60
2018-09-01T07:02:12.421Z,362.32
2018-09-01T07:04:42.928Z,330.85
2018-09-01T07:07:13.284Z,323.10
2018-09-01T07:09:43.593Z,311.32
2018-09-01T07:12:13.720Z,343.25
2018-09-01T07:14:43.884Z,366.75
2018-09-01T07:17:14.087Z,356.27
2018-09-01T07:19:44.353Z,410.97
2018-09-01T07:22:15.142Z,403.23
2018-09-01T07:24:45.498Z,396.65
2018-09-01T07:27:15.916Z,377.40
2018-09-01T07:29:45.989Z,424.27
2018-09-01T07:32:16.742Z,436.00
2018-09-01T07:34:47.164Z,467.03
2018-09-01T07:37:17.723Z,417.93
2018-09-01T07:39:48.181Z,394.30
2018-09-01T07:42:18.435Z,371.10
2018-09-01T07:44:48.896Z,366.63
2018-09-01T07:47:19.651Z,415.58
2018-09-01T07:49:49.958Z,405.98
2018-09-01T07:52:20.319Z,336.35
2018-09-01T07:54:50.695Z,350.00
2018-09-01T07:57:20.821Z,408.20
2018-09-01T07:59:52.233Z,386.07
2018-09-01T08:02:22.415Z,406.37
2018-09-01T08:04:52.587Z,386.90
2018-09-01T08:07:22.925Z,382.20
2018-09-01T08:09:53.142Z,395.03
2018-09-01T08:12:23.423Z,419.85
2018-09-01T08:14:53.791Z,458.95
2018-09-01T08:17:24.045Z,490.70
2018-09-01T08:19:54.767Z,467.45
2018-09-01T08:22:25.188Z,454.65
2018-09-01T08:24:56.206Z,518.65
2018-09-01T08:27:26.377Z,657.95
2018-09-01T08:29:58.291Z,518.00
2018-09-01T08:32:28.822Z,487.32
2018-09-01T08:34:59.091Z,503.95
2018-09-01T08:37:29.220Z,517.42
2018-09-01T08:39:59.479Z,499.02
2018-09-01T08:42:30.228Z,501.37
2018-09-01T08:45:00.864Z,485.27
2018-09-01T08:47:31.752Z,473.88
2018-09-01T08:50:02.155Z,522.52
2018-09-01T08:52:32.537Z,459.07
2018-09-01T08:55:03.517Z,476.07
2018-09-01T08:57:34.283Z,479.80
2018-09-01T09:00:06.337Z,493.20
2018-09-01T09:02:36.937Z,464.40
2018-09-01T09:05:07.636Z,567.10
2018-09-01T09:07:38.115Z,515.92
2018-09-01T09:10:08.398Z,558.45
2018-09-01T09:12:38.533Z,637.92
2018-09-01T09:15:13.784Z,567.77
2018-09-01T09:17:44.820Z,596.83
2018-09-01T09:20:23.001Z,608.65
2018-09-01T09:23:03.012Z,558.23
2018-09-01T09:25:33.261Z,571.80
2018-09-01T09:28:05.132Z,477.67
2018-09-01T09:30:35.769Z,455.35
2018-09-01T09:33:06.782Z,551.40
2018-09-01T09:35:38.993Z,579.67
2018-09-01T09:38:10.875Z,561.80
2018-09-01T09:40:41.283Z,547.65
2018-09-01T09:43:13.441Z,590.45
2018-09-01T09:45:43.891Z,571.12
2018-09-01T09:48:16.336Z,610.10
2018-09-01T09:50:46.704Z,557.40
2018-09-01T09:53:19.328Z,532.00
2018-09-01T09:55:49.686Z,574.83
2018-09-01T09:58:20.701Z,599.08
2018-09-01T10:00:55.982Z,570.85
2018-09-01T10:03:27.640Z,566.58
2018-09-01T10:05:57.993Z,575.95
2018-09-01T10:08:30.024Z,626.45
2018-09-01T10:11:00.404Z,633.83
2018-09-01T10:13:32.792Z,595.08
2018-09-01T10:16:03.393Z,580.05
2018-09-01T10:18:33.713Z,644.37
2018-09-01T10:21:04.119Z,596.53
2018-09-01T10:23:34.342Z,562.80
2018-09-01T10:26:05.151Z,664.63
2018-09-01T10:28:35.399Z,584.08
2018-09-01T10:31:05.777Z,570.05
2018-09-01T10:33:36.004Z,517.25
2018-09-01T10:36:06.365Z,511.73
2018-09-01T10:38:36.897Z,482.88
2018-09-01T10:41:07.362Z,523.33
2018-09-01T10:43:38.124Z,530.95
2018-09-01T10:46:08.787Z,637.25
2018-09-01T10:48:39.167Z,558.23
2018-09-01T10:51:09.501Z,562.10
2018-09-01T10:53:39.700Z,665.50
2018-09-01T10:56:10.144Z,609.90
2018-09-01T10:58:40.642Z,605.50
2018-09-01T11:01:10.959Z,568.37
2018-09-01T11:03:41.342Z,576.75
2018-09-01T11:06:11.873Z,579.17
2018-09-01T11:08:42.041Z,600.17
2018-09-01T11:11:12.225Z,515.28
2018-09-01T11:13:44.236Z,589.90
2018-09-01T11:16:15.697Z,572.70
2018-09-01T11:18:46.145Z,542.10
2018-09-01T11:21:16.317Z,559.87
2018-09-01T11:23:46.810Z,689.67
2018-09-01T11:26:17.057Z,530.17
2018-09-01T11:28:48.318Z,575.45
2018-09-01T11:31:18.592Z,559.45
2018-09-01T11:33:49.151Z,571.63
2018-09-01T11:36:19.387Z,525.98
2018-09-01T11:38:52.496Z,521.50
2018-09-01T11:41:22.971Z,587.83
2018-09-01T11:43:54.790Z,479.32
2018-09-01T11:46:25.557Z,564.42
2018-09-01T11:48:56.324Z,550.25
2018-09-01T11:51:26.703Z,544.73
2018-09-01T11:53:57.232Z,625.70
2018-09-01T11:56:28.165Z,632.73
2018-09-01T11:58:58.670Z,578.48
2018-09-01T12:01:28.875Z,580.42
2018-09-01T12:03:59.162Z,522.17
2018-09-01T12:06:29.343Z,508.95
2018-09-01T12:08:59.910Z,543.55
2018-09-01T12:11:30.795Z,481.13
2018-09-01T12:14:01.414Z,527.45
2018-09-01T12:16:31.804Z,488.80
2018-09-01T12:19:01.981Z,616.95
2018-09-01T12:21:32.154Z,538.95
2018-09-01T12:24:02.598Z,562.45
2018-09-01T12:26:32.795Z,566.88
2018-09-01T12:29:03.303Z,585.97
2018-09-01T12:31:33.667Z,590.20
2018-09-01T12:34:04.360Z,552.60
2018-09-01T12:36:34.719Z,595.40
2018-09-01T12:39:05.619Z,534.22
2018-09-01T12:41:35.724Z,515.00
2018-09-01T12:44:05.907Z,645.62
2018-09-01T12:46:36.019Z,520.17
2018-09-01T12:49:06.443Z,618.73
2018-09-01T12:51:36.612Z,585.65
2018-09-01T12:54:06.855Z,556.97
2018-09-01T12:56:37.311Z,623.37
2018-09-01T12:59:07.655Z,547.27
2018-09-01T13:01:37.839Z,511.77
2018-09-01T13:04:08.142Z,527.45
2018-09-01T13:06:38.916Z,554.75
2018-09-01T13:09:09.335Z,621.55
2018-09-01T13:11:39.633Z,538.98
2018-09-01T13:14:09.775Z,525.12
2018-09-01T13:16:40.149Z,543.15
2018-09-01T13:19:10.372Z,591.15
2018-09-01T13:21:41.194Z,517.08
2018-09-01T13:24:11.428Z,537.83
2018-09-01T13:26:44.121Z,543.87
2018-09-01T13:29:14.801Z,470.62
2018-09-01T13:31:45.033Z,500.87
2018-09-01T13:34:15.484Z,545.45
2018-09-01T13:36:45.745Z,582.00
2018-09-01T13:39:16.060Z,548.65
2018-09-01T13:41:46.411Z,631.27
2018-09-01T13:44:16.736Z,595.35
2018-09-01T13:46:46.991Z,599.67
2018-09-01T13:49:17.355Z,547.83
2018-09-01T13:51:47.601Z,577.78
2018-09-01T13:54:17.860Z,616.23
2018-09-01T13:56:48.281Z,552.00
2018-09-01T13:59:18.582Z,603.58
2018-09-01T14:01:48.832Z,617.48
2018-09-01T14:04:18.951Z,539.73
2018-09-01T14:06:49.146Z,648.35
2018-09-01T14:09:19.317Z,505.57
2018-09-01T14:11:49.648Z,549.58
2018-09-01T14:14:20.008Z,537.62
2018-09-01T14:16:50.271Z,592.72
2018-09-01T14:19:20.531Z,540.08
2018-09-01T14:21:51.013Z,536.30
2018-09-01T14:24:21.299Z,539.67
2018-09-01T14:26:51.563Z,559.30
2018-09-01T14:29:21.634Z,526.05
2018-09-01T14:31:52.038Z,535.27
2018-09-01T14:34:22.641Z,612.48
2018-09-01T14:36:52.956Z,600.42
2018-09-01T14:39:23.239Z,597.17
2018-09-01T14:41:53.598Z,628.90
2018-09-01T14:44:24.153Z,607.08
2018-09-01T14:46:54.433Z,579.40
2018-09-01T14:49:24.648Z,591.00
2018-09-01T14:51:55.015Z,490.60
2018-09-01T14:54:25.266Z,523.30
2018-09-01T14:56:56.026Z,593.20
2018-09-01T14:59:26.301Z,547.05
2018-09-01T15:01:56.950Z,572.23
2018-09-01T15:04:27.209Z,560.80
2018-09-01T15:06:57.654Z,520.88
2018-09-01T15:09:27.886Z,550.35
2018-09-01T15:11:58.212Z,564.73
2018-09-01T15:14:28.465Z,559.80
2018-09-01T15:16:58.825Z,466.42
2018-09-01T15:19:29.180Z,522.95
2018-09-01T15:21:59.525Z,484.15
2018-09-01T15:24:29.777Z,522.48
2018-09-01T15:27:00.077Z,515.10
2018-09-01T15:29:30.439Z,537.98
2018-09-01T15:32:01.304Z,507.17
2018-09-01T15:34:32.408Z,570.55
2018-09-01T15:37:02.645Z,457.55
2018-09-01T15:39:32.816Z,484.80
2018-09-01T15:42:04.053Z,483.27
2018-09-01T15:44:34.388Z,515.75
2018-09-01T15:47:04.644Z,534.58
2018-09-01T15:49:34.888Z,531.25
2018-09-01T15:52:05.596Z,566.10
2018-09-01T15:54:35.839Z,509.87
2018-09-01T15:57:06.210Z,483.12
2018-09-01T15:59:36.405Z,534.40
2018-09-01T16:02:06.804Z,469.35
2018-09-01T16:04:37.005Z,466.98
2018-09-01T16:07:08.488Z,482.27
2018-09-01T16:09:39.274Z,503.52
2018-09-01T16:12:10.065Z,438.77
2018-09-01T16:14:40.211Z,481.65
2018-09-01T16:17:10.751Z,492.57
2018-09-01T16:19:40.863Z,469.82
2018-09-01T16:22:11.155Z,534.42
2018-09-01T16:24:41.455Z,517.72
2018-09-01T16:27:11.667Z,453.32
2018-09-01T16:29:41.873Z,496.60
2018-09-01T16:32:12.243Z,424.55
2018-09-01T16:34:42.572Z,548.58
2018-09-01T16:37:12.678Z,527.97
2018-09-01T16:39:43.390Z,568.42
2018-09-01T16:42:13.613Z,484.50
2018-09-01T16:44:44.394Z,504.57
2018-09-01T16:47:14.559Z,484.30
2018-09-01T16:49:44.716Z,497.82
2018-09-01T16:52:15.220Z,499.05
2018-09-01T16:54:46.619Z,449.98
2018-09-01T16:57:18.124Z,558.12
2018-09-01T16:59:49.730Z,484.98
2018-09-01T17:02:24.860Z,486.10
2018-09-01T17:04:59.336Z,560.65
2018-09-01T17:07:31.527Z,447.63
2018-09-01T17:10:03.260Z,482.77
2018-09-01T17:12:35.295Z,507.55
2018-09-01T17:15:06.150Z,479.53
2018-09-01T17:17:37.739Z,450.85
2018-09-01T17:20:12.589Z,534.37
2018-09-01T17:22:48.685Z,474.38
2018-09-01T17:25:22.035Z,661.77
2018-09-01T17:27:53.102Z,547.55
2018-09-01T17:30:23.468Z,540.12
2018-09-01T17:32:55.060Z,571.03
2018-09-01T17:38:22.504Z,551.00
2018-09-01T17:40:57.844Z,511.08
2018-09-01T17:43:28.003Z,463.25
2018-09-01T17:45:58.449Z,522.42
2018-09-01T17:48:28.705Z,490.70
2018-09-01T17:50:59.008Z,582.55
2018-09-01T17:53:29.716Z,554.02
2018-09-01T17:56:00.004Z,470.98
2018-09-01T17:58:30.964Z,507.17
2018-09-01T18:01:01.660Z,493.35
2018-09-01T18:03:31.987Z,477.62
2018-09-01T18:06:02.897Z,443.97
2018-09-01T18:08:33.358Z,476.87
2018-09-01T18:11:04.038Z,498.60
2018-09-01T18:13:34.619Z,471.80
2018-09-01T18:16:05.152Z,474.90
2018-09-01T18:18:36.897Z,451.07
2018-09-01T18:21:07.301Z,519.92
2018-09-01T18:23:39.497Z,463.50
2018-09-01T18:26:10.547Z,493.33
2018-09-01T18:28:40.963Z,610.27
2018-09-01T18:31:14.030Z,479.18
2018-09-01T18:33:46.352Z,494.90
2018-09-01T18:36:16.599Z,574.20
2018-09-01T18:38:46.715Z,478.77
2018-09-01T18:41:17.025Z,554.67
2018-09-01T18:43:47.298Z,513.45
2018-09-01T18:46:17.591Z,556.95
2018-09-01T18:48:50.269Z,447.10
2018-09-01T18:51:20.733Z,471.75
2018-09-01T18:53:51.346Z,483.55
2018-09-01T18:56:22.483Z,427.97
2018-09-01T18:58:53.328Z,450.15
2018-09-01T19:01:23.561Z,498.45
2018-09-01T19:03:55.535Z,408.32
2018-09-01T19:06:26.080Z,454.10
2018-09-01T19:08:56.164Z,484.63
2018-09-01T19:11:26.528Z,462.38
2018-09-01T19:13:56.982Z,442.22
2018-09-01T19:16:27.049Z,446.37
2018-09-01T19:18:57.976Z,474.90
2018-09-01T19:21:28.728Z,459.75
2018-09-01T19:23:58.931Z,449.25
2018-09-01T19:26:33.451Z,502.97
2018-09-01T19:29:03.844Z,486.05
2018-09-01T19:31:35.119Z,528.23
2018-09-01T19:34:07.546Z,464.78
2018-09-01T19:36:40.904Z,496.48
2018-09-01T19:39:13.825Z,450.48
2018-09-01T19:41:46.608Z,416.70
2018-09-01T19:44:17.700Z,406.10
2018-09-01T19:46:47.820Z,381.52
2018-09-01T19:49:18.004Z,372.52
2018-09-01T19:51:49.854Z,453.00
2018-09-01T19:54:20.219Z,447.25
2018-09-01T19:56:53.901Z,436.40
2018-09-01T19:59:24.272Z,468.63
2018-09-01T20:01:55.556Z,407.40
2018-09-01T20:04:25.837Z,397.17
2018-09-01T20:06:56.088Z,446.30
2018-09-01T20:09:26.744Z,410.87
2018-09-01T20:11:56.879Z,444.85
2018-09-01T20:14:27.484Z,383.55
2018-09-01T20:16:57.697Z,395.63
2018-09-01T20:19:28.401Z,380.67
2018-09-01T20:21:59.044Z,445.73
2018-09-01T20:24:34.448Z,430.37
2018-09-01T20:27:05.925Z,450.05
2018-09-01T20:29:36.106Z,429.72
2018-09-01T20:32:08.730Z,459.50
2018-09-01T20:34:44.234Z,399.60
2018-09-01T20:37:17.939Z,454.83
2018-09-01T20:39:49.789Z,391.47
2018-09-01T20:42:20.564Z,404.92
2018-09-01T20:44:51.543Z,483.68
2018-09-01T20:47:22.525Z,554.45
2018-09-01T20:49:53.920Z,447.02
2018-09-01T20:52:24.232Z,498.02
2018-09-01T20:54:57.229Z,453.50
2018-09-01T20:57:27.819Z,524.85
2018-09-01T21:00:01.019Z,492.07
2018-09-01T21:02:32.219Z,564.45
2018-09-01T21:05:02.774Z,425.30
2018-09-01T21:07:33.152Z,502.62
2018-09-01T21:10:03.649Z,512.23
2018-09-01T21:12:34.030Z,481.10
2018-09-01T21:15:08.054Z,459.20
2018-09-01T21:17:39.091Z,500.75
2018-09-01T21:20:09.687Z,484.57
2018-09-01T21:22:39.993Z,470.73
2018-09-01T21:25:10.180Z,481.30
2018-09-01T21:27:40.553Z,409.10
2018-09-01T21:30:10.945Z,467.95
2018-09-01T21:32:41.300Z,453.65
2018-09-01T21:35:11.591Z,469.20
2018-09-01T21:37:42.060Z,465.05
2018-09-01T21:40:12.229Z,512.98
2018-09-01T21:42:42.893Z,473.30
2018-09-01T21:45:14.152Z,475.07
2018-09-01T21:47:44.491Z,383.50
2018-09-01T21:50:14.685Z,417.07
2018-09-01T21:52:45.006Z,457.47
2018-09-01T21:55:15.527Z,397.37
2018-09-01T21:57:46.093Z,438.63
2018-09-01T22:00:16.528Z,465.12
2018-09-01T22:02:46.776Z,471.75
2018-09-01T22:05:23.843Z,398.10
2018-09-01T22:07:54.228Z,417.55
2018-09-01T22:10:24.548Z,396.55
2018-09-01T22:12:54.890Z,420.70
2018-09-01T22:15:25.191Z,401.13
2018-09-01T22:17:55.409Z,403.10
2018-09-01T22:20:25.654Z,462.77
2018-09-01T22:22:56.571Z,439.75
2018-09-01T22:25:26.812Z,436.92
2018-09-01T22:27:57.093Z,394.67
2018-09-01T22:30:31.871Z,363.55
2018-09-01T22:33:03.048Z,454.75
2018-09-01T22:35:33.794Z,391.55
2018-09-01T22:38:06.322Z,409.75
2018-09-01T22:40:40.472Z,478.85
2018-09-01T22:43:14.404Z,418.43
2018-09-01T22:45:44.675Z,471.45
2018-09-01T22:48:19.982Z,406.75
2018-09-01T22:50:50.345Z,369.05
2018-09-01T22:53:20.617Z,373.13
2018-09-01T22:55:51.419Z,432.65
2018-09-01T22:58:21.606Z,367.57
2018-09-01T23:00:51.896Z,409.52
2018-09-01T23:03:22.024Z,399.23
2018-09-01T23:05:52.290Z,389.80
2018-09-01T23:08:22.484Z,449.23
2018-09-01T23:10:52.883Z,396.82
2018-09-01T23:13:23.180Z,441.02
2018-09-01T23:15:53.567Z,429.45
2018-09-01T23:18:23.709Z,431.13
2018-09-01T23:20:54.144Z,466.27
2018-09-01T23:23:24.551Z,410.57
2018-09-01T23:25:55.028Z,425.18
2018-09-01T23:28:25.293Z,415.52
2018-09-01T23:30:55.435Z,450.75
2018-09-01T23:33:25.746Z,434.33
2018-09-01T23:35:56.273Z,461.43
2018-09-01T23:38:26.579Z,402.90
2018-09-01T23:40:57.170Z,355.40
2018-09-01T23:43:27.494Z,446.85
2018-09-01T23:45:57.901Z,405.83
2018-09-01T23:48:28.166Z,425.87
2018-09-01T23:50:58.336Z,439.35
2018-09-01T23:53:28.596Z,391.12
2018-09-01T23:55:58.946Z,404.32
2018-09-01T23:58:29.312Z,405.18
